Date,TemperatureHighF,TemperatureAvgF,TemperatureLowF,DewpointHighF,DewpointAvgF,DewpointLowF,HumidityHigh,HumidityAvg,HumidityLow,PressureMaxIn,PressureMinIn,WindSpeedMaxMPH,WindSpeedAvgMPH,GustSpeedMaxMPH,PrecipitationSumIn
2013-5-1,69.3,59.1,50.4,41.7,13.7,-14.8,66,24,5,30.18,29.81,12,4,17,0.00
2013-5-2,66.0,57.5,50.5,4.6,-4.7,-15.0,12,8,5,30.23,30.16,15,4,19,0.00
2013-5-3,75.6,61.2,49.3,22.6,9.6,-6.2,23,13,8,30.17,29.88,8,1,12,0.00
2013-5-4,65.7,57.4,45.9,41.5,20.3,0.9,84,28,10,29.88,29.68,17,3,23,0.00
2013-5-5,50.7,44.6,39.6,41.5,33.9,12.0,97,72,21,29.94,29.74,20,6,27,0.02
2013-5-6,42.6,40.5,37.9,42.1,40.0,37.4,99,98,97,30.08,29.92,15,4,25,1.13
2013-5-7,47.5,40.5,35.8,44.4,39.4,35.6,99,96,83,30.15,30.06,14,3,20,0.05
2013-5-8,57.6,44.4,36.0,46.8,40.5,34.5,98,87,61,30.18,30.12,13,2,15,0.00
2013-5-9,63.3,50.4,41.5,48.6,43.4,38.3,94,78,41,30.17,30.08,11,1,14,0.01
2013-5-10,70.7,58.0,44.6,47.5,39.8,30.4,90,56,23,30.17,30.11,11,1,18,0.00
2013-5-11,77.9,65.7,55.4,45.1,37.0,25.9,60,37,15,30.17,30.05,9,1,16,0.00
2013-5-12,80.4,69.7,60.4,45.7,35.6,27.1,49,30,17,30.12,29.96,6,1,10,0.00
2013-5-13,81.9,71.5,62.1,44.6,36.2,31.5,42,28,17,30.03,29.91,9,1,13,0.00
2013-5-14,71.6,64.3,53.8,41.2,31.3,20.7,55,30,17,29.94,29.84,13,3,20,0.00
2013-5-15,74.1,60.2,53.6,47.3,38.0,23.7,69,45,25,29.97,29.91,12,2,19,0.00
2013-5-16,64.0,57.4,49.5,48.4,42.1,31.5,85,58,33,29.92,29.84,16,4,19,0.00
2013-5-17,55.4,50.1,45.7,47.5,44.7,40.8,94,82,70,30.01,29.83,13,3,18,0.00
2013-5-18,69.3,54.1,43.2,49.6,39.6,31.3,94,61,26,30.09,30.00,8,1,12,0.00
2013-5-19,73.6,59.6,48.6,38.8,29.2,23.2,57,33,17,30.04,29.94,9,1,11,0.00
2013-5-20,74.3,62.0,49.6,32.5,24.4,18.1,41,25,14,30.02,29.95,7,1,11,0.00
2013-5-21,72.3,63.1,55.8,44.2,32.3,12.7,58,33,16,29.99,29.79,13,3,20,0.00
2013-5-22,63.3,56.0,44.2,49.1,39.0,27.7,97,56,34,29.79,29.70,17,4,22,0.00
2013-5-23,56.5,50.4,42.6,45.9,35.7,12.7,97,62,20,29.95,29.75,16,5,23,0.00
2013-5-24,63.0,53.8,47.1,45.3,27.8,-21.8,92,46,4,29.99,29.92,12,3,25,0.00
2013-5-25,58.3,52.5,46.8,44.1,28.2,-12.1,90,45,7,30.02,29.94,19,5,21,0.00
2013-5-26,59.5,52.5,44.4,46.6,37.1,14.2,92,58,25,30.04,29.97,17,4,23,0.00
2013-5-27,73.8,57.0,46.4,50.7,39.8,30.7,78,55,21,30.02,29.85,13,1,19,0.00
2013-5-28,72.0,57.7,48.6,50.4,40.6,30.4,87,55,29,29.86,29.76,6,1,14,0.00
2013-5-29,75.6,61.0,47.8,52.3,39.4,24.4,68,48,15,29.86,29.75,10,2,17,0.00
2013-5-30,78.3,63.3,51.4,51.3,42.0,28.2,69,48,18,29.86,29.79,8,2,15,0.00
2013-5-31,82.6,68.9,57.9,51.1,35.9,19.8,54,31,14,29.91,29.83,9,2,11,0.00